This is the latest recevied weather packets stored in our database for station/object KH2PM. If no packets are shown the sender has not sent any weather packets the latest 10 day(s).
| Time | Temp. | Humidity | Pressure | Rain* | Wind** | Luminosity | Snow |
|---|---|---|---|---|---|---|---|
| 1777893005 | 8.89° C | 93% | 1018.2 hPa | 0 mm | - | - | - |
| 1777892704 | 8.89° C | 92% | 1018.2 hPa | 0 mm | - | - | - |
| 1777891805 | 8.33° C | 92% | 1018.1 hPa | 0 mm | - | - | - |
| 1777889704 | 8.89° C | 89% | 1018.1 hPa | 0 mm | - | - | - |
| 1777887304 | 8.89° C | 88% | 1017.9 hPa | 0 mm | - | - | - |
| 1777883404 | 8.89° C | 87% | 1018 hPa | 0 mm | - | - | - |
| 1777875904 | 8.89° C | 75% | 1018.3 hPa | 0 mm | - | - | - |
| 1777874104 | 10° C | 70% | 1018.2 hPa | 0 mm | - | - | - |
| 1777871405 | 8.89° C | 72% | 1018.2 hPa | 0 mm | - | - | - |
| 1777869604 | 8.89° C | 75% | 1018.5 hPa | 0 mm | - | - | - |
| 1777869305 | 8.89° C | 74% | 1018.4 hPa | 0 mm | - | - | - |
| 1777868105 | 8.89° C | 73% | 1018.5 hPa | 0 mm | - | - | - |
| 1777867205 | 8.89° C | 74% | 1018.5 hPa | 0 mm | - | - | - |
| 1777865404 | 8.33° C | 75% | 1018.2 hPa | 0 mm | - | - | - |
| 1777865104 | 8.33° C | 75% | 1018.3 hPa | 0 mm | - | - | - |
| 1777864505 | 8.33° C | 75% | 1018.1 hPa | 0 mm | - | - | - |
| 1777863304 | 9.44° C | 72% | 1018.1 hPa | 0 mm | - | - | - |
| 1777857304 | 11.11° C | 64% | 1017.7 hPa | 0 mm | - | - | - |
| 1777854605 | 13.33° C | 56% | 1017.1 hPa | 0 mm | - | - | - |
| 1777853704 | 14.44° C | 59% | 1016.9 hPa | 0 mm | - | - | - |
| 1777852805 | 15.56° C | 50% | 1016.9 hPa | 0 mm | - | - | - |
| 1777849504 | 18.33° C | 37% | 1016.9 hPa | 0 mm | - | - | - |
| 1777847405 | 18.89° C | 31% | 1016.9 hPa | 0 mm | - | - | - |
| 1777847104 | 19.44° C | 31% | 1016.9 hPa | 0 mm | - | - | - |
| 1777846204 | 20° C | 30% | 1016.8 hPa | 0 mm | - | - | - |
* Rain latest hour (hover to see other rain measurements)
** Current wind speed in m/s (hover to see current wind gust speed)